Time;durP1;ratioP1;P1;durP2;ratioP2;P2;SDS_P1;SDS_P2;PMS_P1;PMS_P2;Temp;Humidity;BMP_temperature;BMP_pressure;BME280_temperature;BME280_humidity;BME280_pressure;Samples;Min_cycle;Max_cycle;Signal;HPM_P1;HPM_P2
2021/12/01 00:00:36;;;;;;;;;;;9.90;99.90;;;;;;5008845;28;20932;-70
2021/12/01 00:03:03;;;;;;;;;;;9.90;99.90;;;;;;5005351;28;20072;-70
2021/12/01 00:05:32;;;;;;;;;;;9.90;99.90;;;;;;5007760;28;20400;-70
2021/12/01 00:07:59;;;;;;;;;;;9.80;99.90;;;;;;5009851;28;19929;-71
2021/12/01 00:10:27;;;;;;;;;;;9.80;99.90;;;;;;5008584;28;19929;-72
2021/12/01 00:12:54;;;;;;;;;;;9.80;99.90;;;;;;5008899;28;19960;-71
2021/12/01 00:15:21;;;;;;;;;;;9.80;99.90;;;;;;5010088;28;20408;-71
2021/12/01 00:17:49;;;;;;;;;;;9.80;99.90;;;;;;5009762;28;19936;-71
2021/12/01 00:20:17;;;;;;;;;;;9.80;99.90;;;;;;5009205;28;20032;-71
2021/12/01 00:22:45;;;;;;;;;;;9.80;99.90;;;;;;5008662;28;19929;-71
2021/12/01 00:25:13;;;;;;;;;;;9.80;99.90;;;;;;5009695;28;20311;-71
2021/12/01 00:27:42;;;;;;;;;;;9.70;99.90;;;;;;5008761;28;19925;-71
2021/12/01 00:30:10;;;;;;;;;;;9.70;99.90;;;;;;5012648;28;19941;-71
2021/12/01 00:32:36;;;;;;;;;;;9.70;99.90;;;;;;5012370;28;19929;-71
2021/12/01 00:35:06;;;;;;;;;;;9.70;99.90;;;;;;5012396;28;19937;-71
2021/12/01 00:37:32;;;;;;;;;;;9.70;99.90;;;;;;5012070;28;19935;-71
2021/12/01 00:39:59;;;;;;;;;;;9.70;99.90;;;;;;5012144;28;19976;-71
2021/12/01 00:42:26;;;;;;;;;;;9.70;99.90;;;;;;5011678;28;19930;-71
2021/12/01 00:44:56;;;;;;;;;;;9.70;99.90;;;;;;5010809;28;19930;-71
2021/12/01 00:47:30;;;;;;;;;;;9.70;99.90;;;;;;5012075;28;19936;-72
2021/12/01 00:49:57;;;;;;;;;;;9.70;99.90;;;;;;5011396;28;21774;-71
2021/12/01 00:52:26;;;;;;;;;;;9.80;99.90;;;;;;5009239;28;20017;-69
2021/12/01 00:54:53;;;;;;;;;;;9.80;99.90;;;;;;5009736;28;20015;-70
2021/12/01 00:57:20;;;;;;;;;;;10.10;99.90;;;;;;5008184;28;19929;-70
2021/12/01 00:59:47;;;;;;;;;;;9.80;99.90;;;;;;5009165;28;20427;-70
2021/12/01 01:02:13;;;;;;;;;;;9.80;99.90;;;;;;5006817;28;19929;-70
2021/12/01 01:04:40;;;;;;;;;;;9.80;99.90;;;;;;5006975;28;20461;-70
2021/12/01 01:07:07;;;;;;;;;;;9.80;99.90;;;;;;5008209;28;19936;-70
2021/12/01 01:09:35;;;;;;;;;;;9.80;99.90;;;;;;5007622;28;19937;-72
2021/12/01 01:17:37;;;;;;;;;;;9.90;99.90;;;;;;5007391;28;19925;-71
2021/12/01 01:20:05;;;;;;;;;;;9.90;99.90;;;;;;5007950;28;19929;-71
2021/12/01 01:22:32;;;;;;;;;;;9.90;99.90;;;;;;5008724;28;20228;-71
2021/12/01 01:25:00;;;;;;;;;;;9.90;99.90;;;;;;5007897;28;19929;-71
2021/12/01 01:27:27;;;;;;;;;;;10.00;99.90;;;;;;5005580;28;19929;-71
2021/12/01 01:29:53;;;;;;;;;;;10.00;99.90;;;;;;5004902;28;19929;-70
2021/12/01 01:32:20;;;;;;;;;;;10.00;99.90;;;;;;5008021;28;19936;-71
2021/12/01 01:34:47;;;;;;;;;;;10.00;99.90;;;;;;5014163;28;19929;-71
2021/12/01 01:37:14;;;;;;;;;;;10.00;99.90;;;;;;5007406;28;19925;-70
2021/12/01 01:39:40;;;;;;;;;;;10.00;99.90;;;;;;5009266;28;19929;-70
2021/12/01 01:42:08;;;;;;;;;;;10.00;99.90;;;;;;5010423;28;20363;-70
2021/12/01 01:44:35;;;;;;;;;;;10.00;99.90;;;;;;5013201;28;19928;-72
2021/12/01 01:47:02;;;;;;;;;;;10.00;99.90;;;;;;4994207;28;19943;-72
2021/12/01 01:49:42;;;;;;;;;;;10.00;99.90;;;;;;5011251;28;19924;-72
2021/12/01 01:52:09;;;;;;;;;;;10.00;99.90;;;;;;5012184;28;19929;-72
2021/12/01 01:54:35;;;;;;;;;;;10.00;99.90;;;;;;5011322;28;20396;-72
2021/12/01 01:57:02;;;;;;;;;;;9.90;99.90;;;;;;5014836;28;19929;-71
2021/12/01 01:59:30;;;;;;;;;;;10.00;99.90;;;;;;5015037;28;19929;-71
2021/12/01 02:01:58;;;;;;;;;;;10.00;99.90;;;;;;5011448;28;19952;-71
2021/12/01 02:04:27;;;;;;;;;;;9.90;99.90;;;;;;5014075;28;19965;-71
2021/12/01 02:06:54;;;;;;;;;;;9.90;99.90;;;;;;5014696;28;20044;-70
2021/12/01 02:09:21;;;;;;;;;;;9.90;99.90;;;;;;5015152;28;19925;-72
2021/12/01 02:11:48;;;;;;;;;;;9.90;99.90;;;;;;5014083;28;19940;-71
2021/12/01 02:14:16;;;;;;;;;;;9.90;99.90;;;;;;5013813;28;19936;-72
2021/12/01 02:16:44;;;;;;;;;;;9.90;99.90;;;;;;5014076;28;19999;-73
2021/12/01 02:19:11;;;;;;;;;;;9.90;99.90;;;;;;5012964;28;19929;-72
2021/12/01 02:21:39;;;;;;;;;;;9.90;99.90;;;;;;5014826;28;19925;-72
2021/12/01 02:24:07;;;;;;;;;;;9.90;99.90;;;;;;5014049;28;20485;-72
2021/12/01 02:26:35;;;;;;;;;;;9.90;99.90;;;;;;4995751;28;19929;-73
2021/12/01 02:29:04;;;;;;;;;;;9.90;99.90;;;;;;5015450;28;20031;-70
2021/12/01 02:31:34;;;;;;;;;;;9.90;99.90;;;;;;4991930;28;19929;-70
2021/12/01 02:34:01;;;;;;;;;;;9.90;99.90;;;;;;5013489;28;20018;-71
2021/12/01 02:36:28;;;;;;;;;;;9.80;99.90;;;;;;5014129;28;20304;-71
2021/12/01 02:38:56;;;;;;;;;;;9.80;99.90;;;;;;5013989;28;19948;-71
2021/12/01 02:41:26;;;;;;;;;;;9.80;99.90;;;;;;5014238;28;19936;-71
2021/12/01 02:43:53;;;;;;;;;;;9.80;99.90;;;;;;5014613;28;20479;-71
2021/12/01 02:46:20;;;;;;;;;;;9.90;99.90;;;;;;5014813;28;20377;-71
2021/12/01 02:48:47;;;;;;;;;;;9.90;99.90;;;;;;5013980;28;19929;-71
2021/12/01 02:51:14;;;;;;;;;;;9.80;99.90;;;;;;5009712;28;19968;-71
2021/12/01 02:53:41;;;;;;;;;;;9.80;99.90;;;;;;5011968;28;20091;-71
2021/12/01 02:56:09;;;;;;;;;;;9.80;99.90;;;;;;5012119;28;19928;-72
2021/12/01 02:58:40;;;;;;;;;;;9.80;99.90;;;;;;5014107;28;19929;-71
2021/12/01 03:01:08;;;;;;;;;;;9.80;99.90;;;;;;5012722;28;19987;-71
2021/12/01 03:03:34;;;;;;;;;;;9.80;99.90;;;;;;5009780;28;19937;-71
2021/12/01 03:06:02;;;;;;;;;;;9.80;99.90;;;;;;5011762;28;19947;-71
2021/12/01 03:08:29;;;;;;;;;;;9.80;99.90;;;;;;4996433;28;19929;-73
2021/12/01 03:10:56;;;;;;;;;;;9.80;99.90;;;;;;5013437;28;19928;-72
2021/12/01 03:13:25;;;;;;;;;;;9.80;99.90;;;;;;5012764;28;19929;-72
2021/12/01 03:15:52;;;;;;;;;;;9.80;99.90;;;;;;5012091;28;20258;-70
2021/12/01 03:18:19;;;;;;;;;;;9.80;99.90;;;;;;5012416;28;19939;-71
2021/12/01 03:20:47;;;;;;;;;;;9.80;99.90;;;;;;5014119;28;19944;-70
2021/12/01 03:23:14;;;;;;;;;;;9.80;99.90;;;;;;5013379;28;19965;-71
2021/12/01 03:25:40;;;;;;;;;;;9.70;99.90;;;;;;5012085;28;19951;-70
2021/12/01 03:28:08;;;;;;;;;;;9.70;99.90;;;;;;5013435;28;19944;-71
2021/12/01 03:30:37;;;;;;;;;;;9.70;99.90;;;;;;5010686;28;19965;-71
2021/12/01 03:33:05;;;;;;;;;;;9.70;99.90;;;;;;5011929;28;19936;-71
2021/12/01 03:35:32;;;;;;;;;;;9.60;99.90;;;;;;5011200;28;20109;-70
2021/12/01 03:37:58;;;;;;;;;;;9.60;99.90;;;;;;5011161;28;19929;-71
2021/12/01 03:40:25;;;;;;;;;;;9.60;99.90;;;;;;5012941;28;19929;-70
2021/12/01 03:42:52;;;;;;;;;;;9.60;99.90;;;;;;4994828;28;19929;-71
2021/12/01 03:45:19;;;;;;;;;;;9.60;99.90;;;;;;5016299;28;19929;-71
2021/12/01 03:47:47;;;;;;;;;;;9.60;99.90;;;;;;5012094;28;19951;-71
2021/12/01 03:50:14;;;;;;;;;;;9.60;99.90;;;;;;5012327;28;20314;-71
2021/12/01 03:52:41;;;;;;;;;;;9.50;99.90;;;;;;5013020;28;19934;-71
2021/12/01 03:55:08;;;;;;;;;;;9.50;99.90;;;;;;5011626;28;19929;-71
2021/12/01 03:57:35;;;;;;;;;;;9.40;99.90;;;;;;5012086;28;19993;-70
2021/12/01 04:00:04;;;;;;;;;;;9.30;99.90;;;;;;5012054;28;19929;-70
2021/12/01 04:02:38;;;;;;;;;;;9.20;99.90;;;;;;5011826;28;19936;-70
2021/12/01 04:05:07;;;;;;;;;;;9.10;99.90;;;;;;5011895;28;19936;-71
2021/12/01 04:07:34;;;;;;;;;;;9.00;99.90;;;;;;5008766;28;20005;-70
2021/12/01 04:10:00;;;;;;;;;;;9.00;99.90;;;;;;5009722;28;19951;-70
2021/12/01 04:12:28;;;;;;;;;;;9.00;99.90;;;;;;5011948;28;19941;-71
2021/12/01 04:14:54;;;;;;;;;;;8.90;99.90;;;;;;5012441;28;19972;-70
2021/12/01 04:17:21;;;;;;;;;;;8.90;99.90;;;;;;5011858;28;19929;-70
2021/12/01 04:19:48;;;;;;;;;;;8.90;99.90;;;;;;5012876;28;19955;-70
2021/12/01 04:22:16;;;;;;;;;;;8.90;99.90;;;;;;5012807;28;19926;-70
2021/12/01 04:24:43;;;;;;;;;;;8.90;99.90;;;;;;5011442;28;20004;-71
2021/12/01 04:27:10;;;;;;;;;;;8.90;99.90;;;;;;5012280;28;19954;-71
2021/12/01 04:29:37;;;;;;;;;;;8.90;99.90;;;;;;5011568;28;20012;-70
2021/12/01 04:32:04;;;;;;;;;;;8.80;99.90;;;;;;5005883;28;20003;-71
2021/12/01 04:34:31;;;;;;;;;;;8.80;99.90;;;;;;4987519;28;21336;-70
2021/12/01 04:36:58;;;;;;;;;;;8.90;99.90;;;;;;5008307;28;19929;-71
2021/12/01 04:39:26;;;;;;;;;;;8.90;99.90;;;;;;5009353;28;20347;-70
2021/12/01 04:41:55;;;;;;;;;;;8.90;99.90;;;;;;5010129;28;19928;-70
2021/12/01 04:44:23;;;;;;;;;;;8.90;99.90;;;;;;5010133;28;20332;-70
2021/12/01 04:46:53;;;;;;;;;;;8.90;99.90;;;;;;5008037;28;20265;-70
2021/12/01 04:49:21;;;;;;;;;;;9.00;99.90;;;;;;5007663;28;19979;-71
2021/12/01 04:51:49;;;;;;;;;;;9.00;99.90;;;;;;5008382;28;19933;-70
2021/12/01 04:54:16;;;;;;;;;;;9.00;99.90;;;;;;4993471;28;20351;-70
2021/12/01 04:56:45;;;;;;;;;;;9.00;99.90;;;;;;5010039;28;19925;-71
2021/12/01 04:59:12;;;;;;;;;;;9.00;99.90;;;;;;5010438;28;19937;-70
2021/12/01 05:01:40;;;;;;;;;;;9.00;99.90;;;;;;5009241;28;20031;-70
2021/12/01 05:04:08;;;;;;;;;;;9.00;99.90;;;;;;5012163;28;19935;-70
2021/12/01 05:06:36;;;;;;;;;;;8.30;99.90;;;;;;5012027;28;19936;-71
2021/12/01 05:09:03;;;;;;;;;;;9.00;99.90;;;;;;5011232;28;19964;-71
2021/12/01 05:11:30;;;;;;;;;;;9.00;99.90;;;;;;5012130;28;19929;-71
2021/12/01 05:13:58;;;;;;;;;;;9.10;99.90;;;;;;5011648;28;19940;-72
2021/12/01 05:16:25;;;;;;;;;;;9.10;99.90;;;;;;5010011;28;19936;-71
2021/12/01 05:18:51;;;;;;;;;;;9.10;99.90;;;;;;5011801;28;20236;-72
2021/12/01 05:21:18;;;;;;;;;;;9.80;99.90;;;;;;5011800;28;19929;-71
2021/12/01 05:23:46;;;;;;;;;;;9.10;99.90;;;;;;5011730;28;19945;-71
2021/12/01 05:26:12;;;;;;;;;;;9.70;99.90;;;;;;5013659;28;19928;-72
2021/12/01 05:28:40;;;;;;;;;;;9.10;99.90;;;;;;5019898;28;20300;-71
2021/12/01 05:31:08;;;;;;;;;;;9.10;99.90;;;;;;5027231;28;19973;-71
2021/12/01 05:33:35;;;;;;;;;;;9.10;99.90;;;;;;5013434;28;20059;-71
2021/12/01 05:36:02;;;;;;;;;;;9.10;99.90;;;;;;5023236;28;19929;-70
2021/12/01 05:38:28;;;;;;;;;;;9.10;99.90;;;;;;5021334;28;19921;-71
2021/12/01 05:40:55;;;;;;;;;;;9.10;99.90;;;;;;5021228;28;19954;-72
2021/12/01 05:43:22;;;;;;;;;;;9.10;99.90;;;;;;5027780;28;20388;-72
2021/12/01 05:45:49;;;;;;;;;;;9.10;99.90;;;;;;5022689;28;19921;-72
2021/12/01 05:48:17;;;;;;;;;;;9.20;99.90;;;;;;5022980;28;20016;-71
2021/12/01 05:50:44;;;;;;;;;;;9.20;99.90;;;;;;5020584;28;19937;-70
2021/12/01 05:53:11;;;;;;;;;;;9.20;99.90;;;;;;5026857;28;20411;-71
2021/12/01 05:55:38;;;;;;;;;;;9.20;99.90;;;;;;5027026;28;19941;-71
2021/12/01 05:58:05;;;;;;;;;;;9.20;99.90;;;;;;5026443;28;19921;-71
2021/12/01 06:00:31;;;;;;;;;;;9.20;99.90;;;;;;5025854;28;19950;-70
2021/12/01 06:02:58;;;;;;;;;;;9.20;99.90;;;;;;5016102;28;19932;-70
2021/12/01 06:05:27;;;;;;;;;;;9.20;99.90;;;;;;5005727;28;19921;-71
2021/12/01 06:07:54;;;;;;;;;;;9.20;99.90;;;;;;5021891;28;19932;-70
2021/12/01 06:10:21;;;;;;;;;;;9.20;99.90;;;;;;5006153;28;19929;-71
2021/12/01 06:12:48;;;;;;;;;;;9.30;99.90;;;;;;5016144;28;19995;-71
2021/12/01 06:15:16;;;;;;;;;;;9.20;99.90;;;;;;5021077;28;20302;-72
2021/12/01 06:17:43;;;;;;;;;;;9.30;99.90;;;;;;5024136;28;19921;-70
2021/12/01 06:20:11;;;;;;;;;;;9.30;99.90;;;;;;5023447;28;19932;-70
2021/12/01 06:22:40;;;;;;;;;;;9.30;99.90;;;;;;5028616;28;20402;-70
2021/12/01 06:25:07;;;;;;;;;;;9.30;99.90;;;;;;5027182;28;19932;-70
2021/12/01 06:27:34;;;;;;;;;;;9.30;99.90;;;;;;5025225;28;20228;-71
2021/12/01 06:30:01;;;;;;;;;;;9.30;99.90;;;;;;5027504;28;19929;-71
2021/12/01 06:32:27;;;;;;;;;;;9.30;99.90;;;;;;5012083;28;19968;-72
2021/12/01 06:34:54;;;;;;;;;;;9.30;99.90;;;;;;5022864;28;19926;-71
2021/12/01 06:37:21;;;;;;;;;;;9.30;99.90;;;;;;5016401;28;19928;-70
2021/12/01 06:39:51;;;;;;;;;;;9.30;99.90;;;;;;5023902;28;19921;-70
2021/12/01 06:42:17;;;;;;;;;;;9.30;99.90;;;;;;5026297;28;19928;-71
2021/12/01 06:44:44;;;;;;;;;;;9.30;99.90;;;;;;5025769;28;20308;-70
2021/12/01 06:47:11;;;;;;;;;;;9.30;99.90;;;;;;5020402;28;19995;-70
2021/12/01 06:49:38;;;;;;;;;;;9.30;99.90;;;;;;5015910;28;19933;-70
2021/12/01 06:52:05;;;;;;;;;;;9.20;99.90;;;;;;5022112;28;20365;-70
2021/12/01 06:54:31;;;;;;;;;;;9.20;99.90;;;;;;5017858;28;20397;-69
2021/12/01 06:56:59;;;;;;;;;;;8.90;99.90;;;;;;5012763;28;19922;-70
2021/12/01 06:59:26;;;;;;;;;;;8.90;99.90;;;;;;5021205;28;19929;-70
2021/12/01 07:01:53;;;;;;;;;;;8.90;99.90;;;;;;5027238;28;20341;-70
2021/12/01 07:04:19;;;;;;;;;;;8.90;99.90;;;;;;5022650;28;19925;-70
2021/12/01 07:06:46;;;;;;;;;;;;;;;;;;5023819;28;19921;-70
2021/12/01 07:09:18;;;;;;;;;;;8.90;99.90;;;;;;5026513;28;19925;-70
2021/12/01 07:11:45;;;;;;;;;;;9.00;99.90;;;;;;5021413;28;19925;-70
2021/12/01 07:14:13;;;;;;;;;;;9.00;99.90;;;;;;5018960;28;20258;-70
2021/12/01 07:16:41;;;;;;;;;;;9.00;99.90;;;;;;5021130;28;19925;-71
2021/12/01 07:19:08;;;;;;;;;;;9.10;99.90;;;;;;5005687;28;20412;-71
2021/12/01 07:21:35;;;;;;;;;;;9.10;99.90;;;;;;5020133;28;19932;-71
2021/12/01 07:24:02;;;;;;;;;;;9.20;99.90;;;;;;5021870;28;20221;-71
2021/12/01 07:26:29;;;;;;;;;;;9.20;99.90;;;;;;5016374;28;19924;-72
2021/12/01 07:28:56;;;;;;;;;;;9.30;99.90;;;;;;5026002;28;20307;-70
2021/12/01 07:31:24;;;;;;;;;;;9.30;99.90;;;;;;5024367;28;19924;-71
2021/12/01 07:33:51;;;;;;;;;;;9.40;99.90;;;;;;5025094;28;20405;-72
2021/12/01 07:36:18;;;;;;;;;;;9.40;99.90;;;;;;5015479;28;20297;-73
2021/12/01 07:38:44;;;;;;;;;;;9.50;99.90;;;;;;5015489;28;19993;-71
2021/12/01 07:41:11;;;;;;;;;;;9.50;99.90;;;;;;5013082;28;19933;-70
2021/12/01 07:43:38;;;;;;;;;;;9.50;99.90;;;;;;5016857;28;19948;-70
2021/12/01 07:46:05;;;;;;;;;;;9.60;99.90;;;;;;5018897;28;19929;-71
2021/12/01 07:48:33;;;;;;;;;;;9.60;99.90;;;;;;5012068;28;19929;-70
2021/12/01 07:51:00;;;;;;;;;;;9.60;99.90;;;;;;5014944;28;19933;-70
2021/12/01 07:53:26;;;;;;;;;;;9.60;99.90;;;;;;5026717;28;19921;-71
2021/12/01 07:55:53;;;;;;;;;;;9.70;99.90;;;;;;5023958;28;19960;-71
2021/12/01 07:58:20;;;;;;;;;;;9.80;99.90;;;;;;5021156;28;19929;-70
2021/12/01 08:00:46;;;;;;;;;;;9.60;99.90;;;;;;5020688;28;19924;-70
2021/12/01 08:03:13;;;;;;;;;;;9.60;99.90;;;;;;5019696;28;19925;-70
2021/12/01 08:05:41;;;;;;;;;;;9.60;99.90;;;;;;5019761;28;20508;-71
2021/12/01 08:08:10;;;;;;;;;;;9.60;99.90;;;;;;5013565;28;19925;-70
2021/12/01 08:10:37;;;;;;;;;;;9.60;99.90;;;;;;5017704;28;19921;-70
2021/12/01 08:13:05;;;;;;;;;;;9.60;99.90;;;;;;5022849;28;19929;-71
2021/12/01 08:15:32;;;;;;;;;;;9.60;99.90;;;;;;5023280;28;19948;-72
2021/12/01 08:17:59;;;;;;;;;;;9.60;99.90;;;;;;5019498;28;19925;-70
2021/12/01 08:20:26;;;;;;;;;;;9.60;99.90;;;;;;5022150;28;19932;-70
2021/12/01 08:22:54;;;;;;;;;;;9.70;99.90;;;;;;5018732;28;20039;-70
2021/12/01 08:25:21;;;;;;;;;;;9.60;99.90;;;;;;5022479;28;19921;-71
2021/12/01 08:27:48;;;;;;;;;;;9.60;99.90;;;;;;5021294;28;19921;-71
2021/12/01 08:30:15;;;;;;;;;;;9.60;99.90;;;;;;5020372;28;19986;-72
2021/12/01 08:32:45;;;;;;;;;;;9.60;99.90;;;;;;5024255;28;19921;-72
2021/12/01 08:35:12;;;;;;;;;;;9.60;99.90;;;;;;5027081;28;20266;-72
2021/12/01 08:37:39;;;;;;;;;;;9.60;99.90;;;;;;5024088;28;20343;-72
2021/12/01 08:40:07;;;;;;;;;;;9.70;99.90;;;;;;5021969;28;19921;-71
2021/12/01 08:42:34;;;;;;;;;;;9.70;99.90;;;;;;5017353;28;19929;-71
2021/12/01 08:45:01;;;;;;;;;;;9.70;99.90;;;;;;5024868;28;20046;-71
2021/12/01 08:47:31;;;;;;;;;;;9.70;99.90;;;;;;5017947;28;19983;-71
2021/12/01 08:49:58;;;;;;;;;;;9.70;99.90;;;;;;5007287;28;19921;-71
2021/12/01 08:52:25;;;;;;;;;;;9.80;99.90;;;;;;5022997;28;19932;-71
2021/12/01 08:54:52;;;;;;;;;;;9.80;99.90;;;;;;5025447;28;20303;-71
2021/12/01 08:57:20;;;;;;;;;;;9.80;99.90;;;;;;5027629;28;20311;-72
2021/12/01 08:59:48;;;;;;;;;;;9.80;99.90;;;;;;5012408;28;20386;-71
2021/12/01 09:02:15;;;;;;;;;;;9.80;99.90;;;;;;5024896;28;19951;-71
2021/12/01 09:04:42;;;;;;;;;;;9.80;99.90;;;;;;5023277;28;19929;-71
2021/12/01 09:07:09;;;;;;;;;;;9.80;99.90;;;;;;5024509;28;20011;-71
2021/12/01 09:09:36;;;;;;;;;;;9.80;99.90;;;;;;5033026;28;19925;-71
2021/12/01 09:12:03;;;;;;;;;;;9.80;99.90;;;;;;5022634;28;19921;-70
2021/12/01 09:14:31;;;;;;;;;;;9.80;99.90;;;;;;5019071;28;19925;-71
2021/12/01 09:16:58;;;;;;;;;;;9.90;99.90;;;;;;5009332;28;20292;-72
2021/12/01 09:19:25;;;;;;;;;;;9.90;99.90;;;;;;5009480;28;19925;-72
2021/12/01 09:21:51;;;;;;;;;;;9.90;99.90;;;;;;5029519;28;19932;-71
2021/12/01 09:24:20;;;;;;;;;;;9.90;99.90;;;;;;5021350;28;19940;-72
2021/12/01 09:26:47;;;;;;;;;;;;;;;;;;5027037;28;19948;-71
2021/12/01 09:29:14;;;;;;;;;;;10.00;99.90;;;;;;5025761;28;19925;-71
2021/12/01 09:31:42;;;;;;;;;;;10.00;99.90;;;;;;5020659;28;19944;-72
2021/12/01 09:34:09;;;;;;;;;;;10.00;99.90;;;;;;5028645;28;19983;-71
2021/12/01 09:36:36;;;;;;;;;;;9.90;99.90;;;;;;5022590;28;19925;-71
2021/12/01 09:39:03;;;;;;;;;;;9.90;99.90;;;;;;5016160;28;19929;-71
2021/12/01 09:41:30;;;;;;;;;;;9.90;99.90;;;;;;5008836;28;19936;-72
2021/12/01 09:43:57;;;;;;;;;;;9.90;99.90;;;;;;5010017;28;20446;-71
2021/12/01 09:46:24;;;;;;;;;;;9.90;99.90;;;;;;5027572;28;19920;-71
2021/12/01 09:48:52;;;;;;;;;;;9.90;99.90;;;;;;5028778;28;19925;-72
2021/12/01 09:51:19;;;;;;;;;;;9.80;99.90;;;;;;5028021;28;20384;-70
2021/12/01 09:53:46;;;;;;;;;;;9.80;99.90;;;;;;5027445;28;20024;-72
2021/12/01 09:56:13;;;;;;;;;;;9.70;99.90;;;;;;5010838;28;20407;-69
2021/12/01 09:58:41;;;;;;;;;;;9.70;99.90;;;;;;5019921;28;20031;-70
2021/12/01 10:01:09;;;;;;;;;;;9.60;99.90;;;;;;5020264;28;20011;-71
2021/12/01 10:03:36;;;;;;;;;;;9.60;99.90;;;;;;5015337;28;19936;-71
2021/12/01 10:06:07;;;;;;;;;;;9.60;99.90;;;;;;4997680;28;19930;-71
2021/12/01 10:08:35;;;;;;;;;;;9.60;99.90;;;;;;5019550;28;19921;-70
2021/12/01 10:11:04;;;;;;;;;;;9.70;99.90;;;;;;5028539;28;20005;-72
2021/12/01 10:13:31;;;;;;;;;;;9.80;99.90;;;;;;5022758;28;20687;-71
2021/12/01 10:15:59;;;;;;;;;;;9.80;99.90;;;;;;5028476;28;19932;-70
2021/12/01 10:18:27;;;;;;;;;;;9.90;99.90;;;;;;5027176;28;20002;-71
2021/12/01 10:20:58;;;;;;;;;;;9.90;99.90;;;;;;5030063;28;20273;-71
2021/12/01 10:23:26;;;;;;;;;;;9.90;99.90;;;;;;5020823;28;19932;-72
2021/12/01 10:25:54;;;;;;;;;;;10.00;99.90;;;;;;5024879;28;19928;-71
2021/12/01 10:28:34;;;;;;;;;;;10.00;99.90;;;;;;5029065;28;20002;-70
2021/12/01 10:31:00;;;;;;;;;;;10.00;99.90;;;;;;5022938;28;19926;-70
2021/12/01 10:33:29;;;;;;;;;;;10.00;99.90;;;;;;5025411;28;19933;-70
2021/12/01 10:35:57;;;;;;;;;;;10.00;99.90;;;;;;5007496;28;20027;-70
2021/12/01 10:38:28;;;;;;;;;;;10.00;99.90;;;;;;5018215;28;19929;-71
2021/12/01 10:41:02;;;;;;;;;;;10.10;99.90;;;;;;5008906;28;19925;-71
2021/12/01 10:43:35;;;;;;;;;;;10.10;99.90;;;;;;5026631;28;19932;-70
2021/12/01 10:46:06;;;;;;;;;;;10.10;99.90;;;;;;5027171;28;19932;-70
2021/12/01 10:48:33;;;;;;;;;;;10.10;99.90;;;;;;5012182;28;19925;-71
2021/12/01 10:50:59;;;;;;;;;;;10.30;99.90;;;;;;5015094;28;19953;-71
2021/12/01 10:53:29;;;;;;;;;;;10.40;99.90;;;;;;5006761;28;19921;-71
2021/12/01 10:55:57;;;;;;;;;;;10.50;99.90;;;;;;5024583;28;19956;-71
2021/12/01 10:58:31;;;;;;;;;;;10.60;99.90;;;;;;5022298;28;19921;-71
2021/12/01 11:01:00;;;;;;;;;;;10.60;99.90;;;;;;5024173;28;19921;-71
2021/12/01 11:03:29;;;;;;;;;;;10.50;99.90;;;;;;5020881;28;19951;-70
2021/12/01 11:05:57;;;;;;;;;;;10.50;99.90;;;;;;5012514;28;20398;-71
2021/12/01 11:08:25;;;;;;;;;;;10.40;99.90;;;;;;5018103;28;19932;-71
2021/12/01 11:10:54;;;;;;;;;;;10.30;99.90;;;;;;5020397;28;19971;-70
2021/12/01 11:13:21;;;;;;;;;;;10.20;99.90;;;;;;5027265;28;20028;-71
2021/12/01 11:15:51;;;;;;;;;;;10.20;99.90;;;;;;5003184;28;19947;-70
2021/12/01 11:18:19;;;;;;;;;;;10.20;99.90;;;;;;5019158;28;19951;-70
2021/12/01 11:20:46;;;;;;;;;;;10.30;99.90;;;;;;5013979;28;19932;-73
2021/12/01 11:23:14;;;;;;;;;;;10.40;99.90;;;;;;5018204;28;20304;-71
2021/12/01 11:25:42;;;;;;;;;;;10.50;99.90;;;;;;5015485;28;20495;-71
2021/12/01 11:28:13;;;;;;;;;;;10.50;99.90;;;;;;5018426;28;19928;-72
2021/12/01 11:30:40;;;;;;;;;;;10.70;99.90;;;;;;5019417;28;19948;-72
2021/12/01 11:33:10;;;;;;;;;;;10.70;99.90;;;;;;5027086;28;19924;-71
2021/12/01 11:35:37;;;;;;;;;;;10.70;99.90;;;;;;5017169;28;20369;-71
2021/12/01 11:38:04;;;;;;;;;;;10.70;99.90;;;;;;5024161;28;19936;-70
2021/12/01 11:40:32;;;;;;;;;;;10.70;99.90;;;;;;5026989;28;20273;-71
2021/12/01 11:42:59;;;;;;;;;;;10.60;99.90;;;;;;5026633;28;19936;-70
2021/12/01 11:45:27;;;;;;;;;;;10.50;99.90;;;;;;5021389;28;20409;-71
2021/12/01 11:47:54;;;;;;;;;;;10.50;99.90;;;;;;5027312;28;20023;-72
2021/12/01 11:50:34;;;;;;;;;;;10.40;99.90;;;;;;5013147;28;19921;-72
2021/12/01 11:53:08;;;;;;;;;;;10.40;99.90;;;;;;5024156;28;20276;-72
2021/12/01 11:55:47;;;;;;;;;;;10.40;99.90;;;;;;5023349;28;19929;-70
2021/12/01 11:58:29;;;;;;;;;;;10.40;99.90;;;;;;5011923;28;20323;-70
2021/12/01 12:00:57;;;;;;;;;;;10.40;99.90;;;;;;5023889;28;19925;-70
2021/12/01 12:03:24;;;;;;;;;;;10.40;99.90;;;;;;5024964;28;19952;-72
2021/12/01 12:06:06;;;;;;;;;;;10.40;99.90;;;;;;5023801;28;19925;-71
2021/12/01 12:08:51;;;;;;;;;;;10.40;99.90;;;;;;5020916;28;20357;-70
2021/12/01 12:11:34;;;;;;;;;;;10.40;99.90;;;;;;5017821;28;20345;-70
2021/12/01 12:14:01;;;;;;;;;;;10.40;99.90;;;;;;5024172;28;20552;-70
2021/12/01 12:16:29;;;;;;;;;;;10.40;99.90;;;;;;5022469;28;20626;-71
2021/12/01 12:18:58;;;;;;;;;;;10.40;99.90;;;;;;5019454;28;20197;-71
2021/12/01 12:21:32;;;;;;;;;;;10.40;99.90;;;;;;5016783;28;19992;-71
2021/12/01 12:24:04;;;;;;;;;;;10.40;99.90;;;;;;5002584;28;20380;-72
2021/12/01 12:26:32;;;;;;;;;;;10.40;99.90;;;;;;5008425;28;19929;-72
2021/12/01 12:29:01;;;;;;;;;;;10.50;99.90;;;;;;5002696;28;19925;-72
2021/12/01 12:31:29;;;;;;;;;;;10.50;99.90;;;;;;5023962;28;20376;-72
2021/12/01 12:33:59;;;;;;;;;;;10.50;99.90;;;;;;5016954;28;19928;-72
2021/12/01 12:36:36;;;;;;;;;;;10.60;99.90;;;;;;5010868;28;19921;-72
2021/12/01 12:39:04;;;;;;;;;;;10.60;99.90;;;;;;5018134;28;19925;-72
2021/12/01 12:41:31;;;;;;;;;;;10.70;99.90;;;;;;5020324;28;20367;-72
2021/12/01 12:44:17;;;;;;;;;;;10.70;99.90;;;;;;5007111;28;20418;-71
2021/12/01 12:47:00;;;;;;;;;;;10.60;99.90;;;;;;5007873;28;20778;-71
2021/12/01 12:49:37;;;;;;;;;;;10.60;99.90;;;;;;5023880;28;19921;-72
2021/12/01 12:52:27;;;;;;;;;;;10.50;99.90;;;;;;5005569;28;20056;-72
2021/12/01 12:54:55;;;;;;;;;;;10.50;99.90;;;;;;5023097;28;20011;-72
2021/12/01 12:57:22;;;;;;;;;;;10.00;99.90;;;;;;5009994;28;19952;-71
2021/12/01 12:59:49;;;;;;;;;;;10.60;99.90;;;;;;5024315;28;19921;-70
2021/12/01 13:02:33;;;;;;;;;;;11.30;99.90;;;;;;5020999;28;19932;-71
2021/12/01 13:05:05;;;;;;;15.10;3.75;;;10.60;99.90;;;;;;5012636;28;20409;-70
2021/12/01 13:07:42;;;;;;;;;;;10.70;99.90;;;;;;5022293;28;20317;-71
2021/12/01 13:10:12;;;;;;;;;;;10.70;99.90;;;;;;5020879;28;20288;-71
2021/12/01 13:12:55;;;;;;;17.00;4.37;;;10.70;99.90;;;;;;5019153;28;19994;-71
2021/12/01 13:15:25;;;;;;;15.17;3.73;;;10.80;99.90;;;;;;5012089;28;20641;-71
2021/12/01 13:17:55;;;;;;;17.93;4.37;;;10.70;99.90;;;;;;5017168;28;20308;-71
2021/12/01 13:20:25;;;;;;;19.20;4.27;;;10.60;99.90;;;;;;5022244;28;20215;-71
2021/12/01 13:23:13;;;;;;;16.77;4.07;;;10.50;99.90;;;;;;5022131;28;20239;-71
2021/12/01 13:25:42;;;;;;;15.33;3.93;;;10.40;99.90;;;;;;5024007;28;20668;-71
2021/12/01 13:28:11;;;;;;;18.27;4.17;;;10.40;99.90;;;;;;5017325;28;20221;-71
2021/12/01 13:30:55;;;;;;;18.20;4.50;;;10.40;99.90;;;;;;5018736;28;20206;-71
2021/12/01 13:33:21;;;;;;;15.27;3.70;;;10.30;99.90;;;;;;5022460;28;20220;-71
2021/12/01 13:35:50;;;;;;;15.70;3.47;;;10.30;99.90;;;;;;4998538;28;20221;-71
2021/12/01 13:38:28;;;;;;;15.57;3.83;;;10.30;99.90;;;;;;5022555;28;20237;-71
2021/12/01 13:40:55;;;;;;;18.70;3.97;;;10.30;99.90;;;;;;5016729;28;20719;-71
2021/12/01 13:43:22;;;;;;;14.60;3.60;;;10.30;99.90;;;;;;5024253;28;20213;-71
2021/12/01 13:45:57;;;;;;;18.80;4.80;;;10.30;99.90;;;;;;5012626;28;20206;-72
2021/12/01 13:48:24;;;;;;;16.10;4.10;;;10.30;99.90;;;;;;5026585;28;20632;-71
2021/12/01 13:50:52;;;;;;;14.93;3.73;;;10.30;99.90;;;;;;5019241;28;20232;-71
2021/12/01 13:53:27;;;;;;;20.03;4.17;;;10.40;99.90;;;;;;5010971;28;20212;-71
2021/12/01 13:55:54;;;;;;;18.20;4.23;;;10.40;99.90;;;;;;5018995;28;20212;-71
2021/12/01 13:58:21;;;;;;;18.23;4.23;;;10.30;99.90;;;;;;5024353;28;20285;-72
2021/12/01 14:00:51;;;;;;;16.70;4.07;;;10.20;99.90;;;;;;5029169;28;20209;-72
2021/12/01 14:03:19;;;;;;;21.13;4.60;;;10.20;99.90;;;;;;5012502;28;20211;-71
2021/12/01 14:05:49;;;;;;;16.40;3.93;;;10.20;99.90;;;;;;5023106;28;20217;-71
2021/12/01 14:08:39;;;;;;;17.87;4.30;;;10.10;99.90;;;;;;5022455;28;20231;-71
2021/12/01 14:11:30;;;;;;;19.47;4.30;;;10.10;99.90;;;;;;5027893;28;20219;-71
2021/12/01 14:13:59;;;;;;;21.77;5.10;;;10.10;99.90;;;;;;5026451;28;20216;-70
2021/12/01 14:16:28;;;;;;;18.07;4.97;;;10.10;99.90;;;;;;5018605;28;20209;-70
2021/12/01 14:18:56;;;;;;;15.37;3.77;;;10.10;99.90;;;;;;5027831;28;20264;-72
2021/12/01 14:21:24;;;;;;;19.10;5.23;;;10.20;99.90;;;;;;5025889;28;20205;-72
2021/12/01 14:23:55;;;;;;;16.43;4.50;;;10.20;99.90;;;;;;5015069;28;20279;-71
2021/12/01 14:26:29;;;;;;;;;;;10.20;99.90;;;;;;5023632;28;20296;-72
2021/12/01 14:29:01;;;;;;;15.40;4.23;;;10.10;99.90;;;;;;5021092;28;20725;-72